sensor_id;sensor_type;location;lat;lon;timestamp;P1;durP1;ratioP1;P2;durP2;ratioP2
21816;SDS011;13247;47.504;7.382;2023-05-10T00:02:02;3.78;;;0.70;;
21816;SDS011;13247;47.504;7.382;2023-05-10T00:04:46;0.60;;;0.60;;
21816;SDS011;13247;47.504;7.382;2023-05-10T00:07:31;0.98;;;0.63;;
21816;SDS011;13247;47.504;7.382;2023-05-10T00:10:15;0.50;;;0.50;;
21816;SDS011;13247;47.504;7.382;2023-05-10T00:13:00;1.05;;;0.60;;
21816;SDS011;13247;47.504;7.382;2023-05-10T00:15:45;0.73;;;0.40;;
21816;SDS011;13247;47.504;7.382;2023-05-10T00:18:29;0.60;;;0.60;;
21816;SDS011;13247;47.504;7.382;2023-05-10T00:21:14;0.88;;;0.60;;
21816;SDS011;13247;47.504;7.382;2023-05-10T00:23:59;0.73;;;0.73;;
21816;SDS011;13247;47.504;7.382;2023-05-10T00:26:44;0.50;;;0.50;;
21816;SDS011;13247;47.504;7.382;2023-05-10T00:29:29;0.63;;;0.63;;
21816;SDS011;13247;47.504;7.382;2023-05-10T00:32:14;2.25;;;0.90;;
21816;SDS011;13247;47.504;7.382;2023-05-10T00:34:58;1.98;;;0.70;;
21816;SDS011;13247;47.504;7.382;2023-05-10T00:37:43;1.50;;;0.70;;
21816;SDS011;13247;47.504;7.382;2023-05-10T00:40:29;0.77;;;0.70;;
21816;SDS011;13247;47.504;7.382;2023-05-10T00:43:14;1.02;;;0.70;;
21816;SDS011;13247;47.504;7.382;2023-05-10T00:45:58;0.80;;;0.60;;
21816;SDS011;13247;47.504;7.382;2023-05-10T00:48:44;0.90;;;0.90;;
21816;SDS011;13247;47.504;7.382;2023-05-10T00:51:29;0.65;;;0.65;;
21816;SDS011;13247;47.504;7.382;2023-05-10T00:54:15;1.02;;;0.85;;
21816;SDS011;13247;47.504;7.382;2023-05-10T00:57:00;7.90;;;0.98;;
21816;SDS011;13247;47.504;7.382;2023-05-10T00:59:45;0.63;;;0.63;;
21816;SDS011;13247;47.504;7.382;2023-05-10T01:02:30;0.73;;;0.70;;
21816;SDS011;13247;47.504;7.382;2023-05-10T01:05:16;1.35;;;0.60;;
21816;SDS011;13247;47.504;7.382;2023-05-10T01:08:01;0.60;;;0.60;;
21816;SDS011;13247;47.504;7.382;2023-05-10T01:10:46;1.13;;;0.80;;
21816;SDS011;13247;47.504;7.382;2023-05-10T01:13:33;1.17;;;0.80;;
21816;SDS011;13247;47.504;7.382;2023-05-10T01:16:19;0.77;;;0.77;;
21816;SDS011;13247;47.504;7.382;2023-05-10T01:19:11;0.90;;;0.73;;
21816;SDS011;13247;47.504;7.382;2023-05-10T01:25:32;0.57;;;0.57;;
21816;SDS011;13247;47.504;7.382;2023-05-10T01:28:51;1.02;;;0.75;;
21816;SDS011;13247;47.504;7.382;2023-05-10T01:32:15;1.55;;;0.63;;
21816;SDS011;13247;47.504;7.382;2023-05-10T01:35:26;1.25;;;1.15;;
21816;SDS011;13247;47.504;7.382;2023-05-10T01:38:32;2.40;;;0.90;;
21816;SDS011;13247;47.504;7.382;2023-05-10T01:47:40;0.75;;;0.65;;
21816;SDS011;13247;47.504;7.382;2023-05-10T01:50:29;2.05;;;0.80;;
21816;SDS011;13247;47.504;7.382;2023-05-10T01:53:17;0.80;;;0.80;;
21816;SDS011;13247;47.504;7.382;2023-05-10T01:56:03;3.67;;;0.98;;
21816;SDS011;13247;47.504;7.382;2023-05-10T01:58:51;1.42;;;0.75;;
21816;SDS011;13247;47.504;7.382;2023-05-10T02:01:37;0.88;;;0.80;;
21816;SDS011;13247;47.504;7.382;2023-05-10T02:04:23;1.35;;;0.85;;
21816;SDS011;13247;47.504;7.382;2023-05-10T02:07:10;2.45;;;0.90;;
21816;SDS011;13247;47.504;7.382;2023-05-10T02:09:56;18.98;;;1.30;;
21816;SDS011;13247;47.504;7.382;2023-05-10T02:12:43;0.70;;;0.70;;
21816;SDS011;13247;47.504;7.382;2023-05-10T02:15:30;1.83;;;1.00;;
21816;SDS011;13247;47.504;7.382;2023-05-10T02:18:16;0.70;;;0.70;;
21816;SDS011;13247;47.504;7.382;2023-05-10T02:21:02;0.77;;;0.77;;
21816;SDS011;13247;47.504;7.382;2023-05-10T02:23:48;2.08;;;0.57;;
21816;SDS011;13247;47.504;7.382;2023-05-10T02:26:35;2.33;;;0.70;;
21816;SDS011;13247;47.504;7.382;2023-05-10T02:29:22;2.05;;;0.60;;
21816;SDS011;13247;47.504;7.382;2023-05-10T02:32:08;0.45;;;0.45;;
21816;SDS011;13247;47.504;7.382;2023-05-10T02:34:55;1.75;;;0.60;;
21816;SDS011;13247;47.504;7.382;2023-05-10T02:37:42;0.55;;;0.43;;
21816;SDS011;13247;47.504;7.382;2023-05-10T02:40:29;0.93;;;0.60;;
21816;SDS011;13247;47.504;7.382;2023-05-10T02:43:15;3.80;;;0.65;;
21816;SDS011;13247;47.504;7.382;2023-05-10T02:46:02;0.45;;;0.45;;
21816;SDS011;13247;47.504;7.382;2023-05-10T02:48:47;0.43;;;0.43;;
21816;SDS011;13247;47.504;7.382;2023-05-10T02:51:32;0.40;;;0.32;;
21816;SDS011;13247;47.504;7.382;2023-05-10T02:54:22;0.68;;;0.68;;
21816;SDS011;13247;47.504;7.382;2023-05-10T02:57:15;0.70;;;0.60;;
21816;SDS011;13247;47.504;7.382;2023-05-10T03:00:05;0.43;;;0.30;;
21816;SDS011;13247;47.504;7.382;2023-05-10T03:02:51;0.40;;;0.40;;
21816;SDS011;13247;47.504;7.382;2023-05-10T03:05:36;1.08;;;0.52;;
21816;SDS011;13247;47.504;7.382;2023-05-10T03:08:21;0.40;;;0.40;;
21816;SDS011;13247;47.504;7.382;2023-05-10T03:11:20;6.05;;;0.40;;
21816;SDS011;13247;47.504;7.382;2023-05-10T03:20:29;0.50;;;0.50;;
21816;SDS011;13247;47.504;7.382;2023-05-10T03:26:13;1.13;;;0.45;;
21816;SDS011;13247;47.504;7.382;2023-05-10T03:29:04;3.35;;;0.63;;
21816;SDS011;13247;47.504;7.382;2023-05-10T03:31:50;0.70;;;0.70;;
21816;SDS011;13247;47.504;7.382;2023-05-10T03:34:35;2.50;;;0.80;;
21816;SDS011;13247;47.504;7.382;2023-05-10T03:37:27;0.98;;;0.70;;
21816;SDS011;13247;47.504;7.382;2023-05-10T03:40:11;1.40;;;0.63;;
21816;SDS011;13247;47.504;7.382;2023-05-10T03:43:00;2.25;;;1.02;;
21816;SDS011;13247;47.504;7.382;2023-05-10T03:45:44;1.77;;;1.02;;
21816;SDS011;13247;47.504;7.382;2023-05-10T03:48:29;0.80;;;0.80;;
21816;SDS011;13247;47.504;7.382;2023-05-10T03:51:14;0.80;;;0.80;;
21816;SDS011;13247;47.504;7.382;2023-05-10T03:53:59;1.08;;;0.85;;
21816;SDS011;13247;47.504;7.382;2023-05-10T03:56:43;1.98;;;0.75;;
21816;SDS011;13247;47.504;7.382;2023-05-10T03:59:28;0.80;;;0.80;;
21816;SDS011;13247;47.504;7.382;2023-05-10T04:02:13;6.43;;;1.08;;
21816;SDS011;13247;47.504;7.382;2023-05-10T04:04:57;0.80;;;0.80;;
21816;SDS011;13247;47.504;7.382;2023-05-10T04:07:42;0.73;;;0.68;;
21816;SDS011;13247;47.504;7.382;2023-05-10T04:10:28;1.15;;;0.60;;
21816;SDS011;13247;47.504;7.382;2023-05-10T04:13:13;0.47;;;0.47;;
21816;SDS011;13247;47.504;7.382;2023-05-10T04:15:57;0.85;;;0.47;;
21816;SDS011;13247;47.504;7.382;2023-05-10T04:18:42;0.50;;;0.40;;
21816;SDS011;13247;47.504;7.382;2023-05-10T04:21:27;0.30;;;0.30;;
21816;SDS011;13247;47.504;7.382;2023-05-10T04:24:11;0.45;;;0.45;;
21816;SDS011;13247;47.504;7.382;2023-05-10T04:26:56;3.03;;;0.40;;
21816;SDS011;13247;47.504;7.382;2023-05-10T04:29:40;0.60;;;0.60;;
21816;SDS011;13247;47.504;7.382;2023-05-10T04:32:25;1.40;;;0.47;;
21816;SDS011;13247;47.504;7.382;2023-05-10T04:35:10;0.80;;;0.60;;
21816;SDS011;13247;47.504;7.382;2023-05-10T04:37:54;0.82;;;0.57;;
21816;SDS011;13247;47.504;7.382;2023-05-10T04:40:39;4.13;;;0.73;;
21816;SDS011;13247;47.504;7.382;2023-05-10T04:43:24;1.42;;;0.70;;
21816;SDS011;13247;47.504;7.382;2023-05-10T04:46:09;1.48;;;0.82;;
21816;SDS011;13247;47.504;7.382;2023-05-10T04:48:54;1.75;;;0.70;;
21816;SDS011;13247;47.504;7.382;2023-05-10T04:51:39;1.83;;;0.85;;
21816;SDS011;13247;47.504;7.382;2023-05-10T04:54:23;1.98;;;1.17;;
21816;SDS011;13247;47.504;7.382;2023-05-10T04:57:08;1.55;;;1.20;;
21816;SDS011;13247;47.504;7.382;2023-05-10T04:59:53;3.13;;;1.88;;
21816;SDS011;13247;47.504;7.382;2023-05-10T05:02:37;9.10;;;4.38;;
21816;SDS011;13247;47.504;7.382;2023-05-10T05:05:22;10.52;;;4.50;;
21816;SDS011;13247;47.504;7.382;2023-05-10T05:08:06;11.10;;;5.68;;
21816;SDS011;13247;47.504;7.382;2023-05-10T05:10:51;6.28;;;2.80;;
21816;SDS011;13247;47.504;7.382;2023-05-10T05:13:36;2.92;;;1.45;;
21816;SDS011;13247;47.504;7.382;2023-05-10T05:16:20;10.23;;;3.65;;
21816;SDS011;13247;47.504;7.382;2023-05-10T05:19:05;6.00;;;3.33;;
21816;SDS011;13247;47.504;7.382;2023-05-10T05:21:49;10.80;;;4.22;;
21816;SDS011;13247;47.504;7.382;2023-05-10T05:24:34;5.78;;;1.85;;
21816;SDS011;13247;47.504;7.382;2023-05-10T05:27:21;3.80;;;1.35;;
21816;SDS011;13247;47.504;7.382;2023-05-10T05:30:08;9.52;;;2.83;;
21816;SDS011;13247;47.504;7.382;2023-05-10T05:32:53;2.08;;;1.88;;
21816;SDS011;13247;47.504;7.382;2023-05-10T05:35:37;1.50;;;1.40;;
21816;SDS011;13247;47.504;7.382;2023-05-10T05:38:21;5.60;;;1.27;;
21816;SDS011;13247;47.504;7.382;2023-05-10T05:41:07;1.50;;;1.40;;
21816;SDS011;13247;47.504;7.382;2023-05-10T05:43:51;3.00;;;1.42;;
21816;SDS011;13247;47.504;7.382;2023-05-10T05:46:36;3.00;;;1.50;;
21816;SDS011;13247;47.504;7.382;2023-05-10T05:49:21;2.72;;;1.17;;
21816;SDS011;13247;47.504;7.382;2023-05-10T05:52:06;3.50;;;1.50;;
21816;SDS011;13247;47.504;7.382;2023-05-10T05:54:51;6.80;;;1.80;;
21816;SDS011;13247;47.504;7.382;2023-05-10T05:57:35;4.85;;;1.58;;
21816;SDS011;13247;47.504;7.382;2023-05-10T06:00:20;3.05;;;1.27;;
21816;SDS011;13247;47.504;7.382;2023-05-10T06:03:06;1.98;;;1.40;;
21816;SDS011;13247;47.504;7.382;2023-05-10T06:05:50;5.75;;;1.80;;
21816;SDS011;13247;47.504;7.382;2023-05-10T06:08:35;4.53;;;1.30;;
21816;SDS011;13247;47.504;7.382;2023-05-10T06:11:19;7.05;;;1.33;;
21816;SDS011;13247;47.504;7.382;2023-05-10T06:14:04;1.52;;;1.05;;
21816;SDS011;13247;47.504;7.382;2023-05-10T06:16:51;3.40;;;1.17;;
21816;SDS011;13247;47.504;7.382;2023-05-10T06:19:35;3.78;;;1.00;;
21816;SDS011;13247;47.504;7.382;2023-05-10T06:22:20;7.75;;;1.98;;
21816;SDS011;13247;47.504;7.382;2023-05-10T06:25:08;1.58;;;1.23;;
21816;SDS011;13247;47.504;7.382;2023-05-10T06:27:53;2.55;;;0.90;;
21816;SDS011;13247;47.504;7.382;2023-05-10T06:30:40;2.60;;;1.10;;
21816;SDS011;13247;47.504;7.382;2023-05-10T06:33:25;1.50;;;0.82;;
21816;SDS011;13247;47.504;7.382;2023-05-10T06:36:11;4.63;;;1.17;;
21816;SDS011;13247;47.504;7.382;2023-05-10T06:38:56;2.58;;;1.60;;
21816;SDS011;13247;47.504;7.382;2023-05-10T06:41:41;5.50;;;2.35;;
21816;SDS011;13247;47.504;7.382;2023-05-10T06:44:25;3.05;;;1.02;;
21816;SDS011;13247;47.504;7.382;2023-05-10T06:47:10;2.65;;;1.48;;
21816;SDS011;13247;47.504;7.382;2023-05-10T06:49:54;2.92;;;1.30;;
21816;SDS011;13247;47.504;7.382;2023-05-10T06:52:39;1.38;;;1.10;;
21816;SDS011;13247;47.504;7.382;2023-05-10T06:55:24;8.30;;;3.25;;
21816;SDS011;13247;47.504;7.382;2023-05-10T06:58:10;3.47;;;1.60;;
21816;SDS011;13247;47.504;7.382;2023-05-10T07:00:54;3.17;;;1.42;;
21816;SDS011;13247;47.504;7.382;2023-05-10T07:03:46;1.95;;;1.30;;
21816;SDS011;13247;47.504;7.382;2023-05-10T07:06:30;2.30;;;1.20;;
21816;SDS011;13247;47.504;7.382;2023-05-10T07:09:15;3.88;;;1.38;;
21816;SDS011;13247;47.504;7.382;2023-05-10T07:12:00;1.92;;;1.27;;
21816;SDS011;13247;47.504;7.382;2023-05-10T07:14:45;2.53;;;1.42;;
21816;SDS011;13247;47.504;7.382;2023-05-10T07:17:30;1.70;;;1.13;;
21816;SDS011;13247;47.504;7.382;2023-05-10T07:20:14;2.80;;;1.30;;
21816;SDS011;13247;47.504;7.382;2023-05-10T07:22:59;2.35;;;1.27;;
21816;SDS011;13247;47.504;7.382;2023-05-10T07:25:47;5.88;;;1.70;;
21816;SDS011;13247;47.504;7.382;2023-05-10T07:28:33;3.90;;;1.55;;
21816;SDS011;13247;47.504;7.382;2023-05-10T07:31:20;2.70;;;1.55;;
21816;SDS011;13247;47.504;7.382;2023-05-10T07:34:04;3.13;;;1.20;;
21816;SDS011;13247;47.504;7.382;2023-05-10T07:36:49;2.00;;;1.25;;
21816;SDS011;13247;47.504;7.382;2023-05-10T07:39:34;2.55;;;1.50;;
21816;SDS011;13247;47.504;7.382;2023-05-10T07:42:18;2.75;;;1.40;;
21816;SDS011;13247;47.504;7.382;2023-05-10T07:45:03;2.10;;;0.95;;
21816;SDS011;13247;47.504;7.382;2023-05-10T07:47:49;2.30;;;0.80;;
21816;SDS011;13247;47.504;7.382;2023-05-10T07:50:34;2.70;;;1.50;;
21816;SDS011;13247;47.504;7.382;2023-05-10T07:53:19;2.08;;;0.73;;
21816;SDS011;13247;47.504;7.382;2023-05-10T07:59:18;8.88;;;1.00;;
21816;SDS011;13247;47.504;7.382;2023-05-10T08:02:03;0.82;;;0.73;;
21816;SDS011;13247;47.504;7.382;2023-05-10T08:04:48;1.95;;;0.82;;
21816;SDS011;13247;47.504;7.382;2023-05-10T08:07:33;3.50;;;0.88;;
21816;SDS011;13247;47.504;7.382;2023-05-10T08:10:18;2.70;;;0.73;;
21816;SDS011;13247;47.504;7.382;2023-05-10T08:13:03;1.02;;;0.75;;
21816;SDS011;13247;47.504;7.382;2023-05-10T08:15:48;2.75;;;0.77;;
21816;SDS011;13247;47.504;7.382;2023-05-10T08:18:32;0.93;;;0.80;;
21816;SDS011;13247;47.504;7.382;2023-05-10T08:21:17;0.60;;;0.60;;
21816;SDS011;13247;47.504;7.382;2023-05-10T08:24:02;3.50;;;0.88;;
21816;SDS011;13247;47.504;7.382;2023-05-10T08:26:48;2.67;;;0.80;;
21816;SDS011;13247;47.504;7.382;2023-05-10T08:29:32;4.90;;;1.00;;
21816;SDS011;13247;47.504;7.382;2023-05-10T08:32:17;3.92;;;0.85;;
21816;SDS011;13247;47.504;7.382;2023-05-10T08:35:02;2.38;;;0.88;;
21816;SDS011;13247;47.504;7.382;2023-05-10T08:37:47;1.17;;;0.65;;
21816;SDS011;13247;47.504;7.382;2023-05-10T08:40:32;3.05;;;1.00;;
21816;SDS011;13247;47.504;7.382;2023-05-10T08:43:19;2.75;;;0.80;;
21816;SDS011;13247;47.504;7.382;2023-05-10T08:46:04;1.70;;;0.60;;
21816;SDS011;13247;47.504;7.382;2023-05-10T08:48:51;6.63;;;1.25;;
21816;SDS011;13247;47.504;7.382;2023-05-10T08:51:40;2.80;;;0.85;;
21816;SDS011;13247;47.504;7.382;2023-05-10T08:54:27;4.95;;;0.68;;
21816;SDS011;13247;47.504;7.382;2023-05-10T08:57:12;1.33;;;0.70;;
21816;SDS011;13247;47.504;7.382;2023-05-10T08:59:57;2.92;;;0.90;;
21816;SDS011;13247;47.504;7.382;2023-05-10T09:02:44;1.23;;;0.75;;
21816;SDS011;13247;47.504;7.382;2023-05-10T09:05:32;0.90;;;0.65;;
21816;SDS011;13247;47.504;7.382;2023-05-10T09:08:16;2.05;;;0.70;;
21816;SDS011;13247;47.504;7.382;2023-05-10T09:11:02;6.70;;;0.93;;
21816;SDS011;13247;47.504;7.382;2023-05-10T09:13:48;4.90;;;1.40;;
21816;SDS011;13247;47.504;7.382;2023-05-10T09:16:34;2.75;;;1.05;;
21816;SDS011;13247;47.504;7.382;2023-05-10T09:19:19;1.58;;;0.82;;
21816;SDS011;13247;47.504;7.382;2023-05-10T09:22:03;1.80;;;0.95;;
21816;SDS011;13247;47.504;7.382;2023-05-10T09:25:02;1.65;;;0.80;;
21816;SDS011;13247;47.504;7.382;2023-05-10T09:27:50;8.75;;;1.08;;
21816;SDS011;13247;47.504;7.382;2023-05-10T09:30:35;2.15;;;0.60;;
21816;SDS011;13247;47.504;7.382;2023-05-10T09:33:20;3.72;;;1.13;;
21816;SDS011;13247;47.504;7.382;2023-05-10T09:36:06;5.35;;;1.50;;
21816;SDS011;13247;47.504;7.382;2023-05-10T09:38:52;2.95;;;1.00;;
21816;SDS011;13247;47.504;7.382;2023-05-10T09:41:37;3.70;;;1.00;;
21816;SDS011;13247;47.504;7.382;2023-05-10T09:44:21;0.90;;;0.73;;
21816;SDS011;13247;47.504;7.382;2023-05-10T09:47:06;1.52;;;1.20;;
21816;SDS011;13247;47.504;7.382;2023-05-10T09:49:51;3.03;;;1.25;;
21816;SDS011;13247;47.504;7.382;2023-05-10T09:52:52;3.97;;;1.13;;
21816;SDS011;13247;47.504;7.382;2023-05-10T09:58:29;2.60;;;1.00;;
21816;SDS011;13247;47.504;7.382;2023-05-10T10:01:14;5.97;;;1.85;;
21816;SDS011;13247;47.504;7.382;2023-05-10T10:03:58;2.78;;;1.70;;
21816;SDS011;13247;47.504;7.382;2023-05-10T10:06:46;2.38;;;1.40;;
21816;SDS011;13247;47.504;7.382;2023-05-10T10:09:41;4.93;;;1.15;;
21816;SDS011;13247;47.504;7.382;2023-05-10T10:12:26;8.73;;;3.78;;
21816;SDS011;13247;47.504;7.382;2023-05-10T10:15:11;6.40;;;1.40;;
21816;SDS011;13247;47.504;7.382;2023-05-10T10:17:57;4.47;;;1.15;;
21816;SDS011;13247;47.504;7.382;2023-05-10T10:20:42;10.80;;;1.25;;
21816;SDS011;13247;47.504;7.382;2023-05-10T10:23:27;0.90;;;0.90;;
21816;SDS011;13247;47.504;7.382;2023-05-10T10:26:11;2.92;;;0.93;;
21816;SDS011;13247;47.504;7.382;2023-05-10T10:29:19;5.50;;;1.30;;
21816;SDS011;13247;47.504;7.382;2023-05-10T10:35:05;3.00;;;0.95;;
21816;SDS011;13247;47.504;7.382;2023-05-10T10:37:51;4.30;;;0.57;;
21816;SDS011;13247;47.504;7.382;2023-05-10T10:40:36;2.70;;;0.82;;
21816;SDS011;13247;47.504;7.382;2023-05-10T10:46:25;3.78;;;0.85;;
21816;SDS011;13247;47.504;7.382;2023-05-10T10:49:10;1.38;;;0.68;;
21816;SDS011;13247;47.504;7.382;2023-05-10T10:55:14;1.45;;;0.80;;
21816;SDS011;13247;47.504;7.382;2023-05-10T10:58:05;0.63;;;0.50;;
21816;SDS011;13247;47.504;7.382;2023-05-10T11:00:52;8.07;;;2.38;;
21816;SDS011;13247;47.504;7.382;2023-05-10T11:06:48;2.75;;;1.50;;
21816;SDS011;13247;47.504;7.382;2023-05-10T11:09:38;1.80;;;0.90;;
21816;SDS011;13247;47.504;7.382;2023-05-10T11:12:24;5.75;;;1.77;;
21816;SDS011;13247;47.504;7.382;2023-05-10T11:15:09;2.65;;;0.80;;
21816;SDS011;13247;47.504;7.382;2023-05-10T11:17:54;2.35;;;1.05;;
21816;SDS011;13247;47.504;7.382;2023-05-10T11:20:39;2.28;;;0.95;;
21816;SDS011;13247;47.504;7.382;2023-05-10T11:23:28;1.58;;;0.80;;
21816;SDS011;13247;47.504;7.382;2023-05-10T11:26:31;2.20;;;0.80;;
21816;SDS011;13247;47.504;7.382;2023-05-10T11:29:19;1.75;;;0.93;;
21816;SDS011;13247;47.504;7.382;2023-05-10T11:32:04;2.05;;;0.82;;
21816;SDS011;13247;47.504;7.382;2023-05-10T11:34:51;3.58;;;0.70;;
21816;SDS011;13247;47.504;7.382;2023-05-10T11:37:36;5.00;;;0.55;;
21816;SDS011;13247;47.504;7.382;2023-05-10T11:40:24;0.50;;;0.50;;
21816;SDS011;13247;47.504;7.382;2023-05-10T11:43:10;1.35;;;0.85;;
21816;SDS011;13247;47.504;7.382;2023-05-10T11:45:55;5.82;;;0.82;;
21816;SDS011;13247;47.504;7.382;2023-05-10T11:48:40;0.40;;;0.40;;
21816;SDS011;13247;47.504;7.382;2023-05-10T11:51:26;3.13;;;0.85;;
21816;SDS011;13247;47.504;7.382;2023-05-10T11:54:11;1.02;;;0.80;;
21816;SDS011;13247;47.504;7.382;2023-05-10T11:56:56;10.68;;;1.70;;
21816;SDS011;13247;47.504;7.382;2023-05-10T11:59:41;8.23;;;1.20;;
21816;SDS011;13247;47.504;7.382;2023-05-10T12:02:25;0.90;;;0.60;;
21816;SDS011;13247;47.504;7.382;2023-05-10T12:05:10;3.08;;;0.77;;
21816;SDS011;13247;47.504;7.382;2023-05-10T12:08:10;1.90;;;0.68;;
21816;SDS011;13247;47.504;7.382;2023-05-10T12:11:08;2.20;;;1.47;;
21816;SDS011;13247;47.504;7.382;2023-05-10T12:13:57;1.23;;;0.52;;
21816;SDS011;13247;47.504;7.382;2023-05-10T12:16:42;1.08;;;0.60;;
21816;SDS011;13247;47.504;7.382;2023-05-10T12:19:27;1.98;;;0.40;;
21816;SDS011;13247;47.504;7.382;2023-05-10T12:22:20;4.45;;;0.90;;
21816;SDS011;13247;47.504;7.382;2023-05-10T12:25:06;1.02;;;0.32;;
21816;SDS011;13247;47.504;7.382;2023-05-10T12:27:52;0.50;;;0.50;;
21816;SDS011;13247;47.504;7.382;2023-05-10T12:30:39;0.65;;;0.50;;
21816;SDS011;13247;47.504;7.382;2023-05-10T12:33:24;0.50;;;0.50;;
21816;SDS011;13247;47.504;7.382;2023-05-10T12:36:09;1.65;;;0.57;;
21816;SDS011;13247;47.504;7.382;2023-05-10T12:39:02;0.40;;;0.30;;
21816;SDS011;13247;47.504;7.382;2023-05-10T12:41:46;1.65;;;0.30;;
21816;SDS011;13247;47.504;7.382;2023-05-10T12:44:31;0.55;;;0.38;;
21816;SDS011;13247;47.504;7.382;2023-05-10T12:47:16;2.28;;;0.30;;
21816;SDS011;13247;47.504;7.382;2023-05-10T12:50:01;0.75;;;0.40;;
21816;SDS011;13247;47.504;7.382;2023-05-10T12:52:46;1.95;;;0.28;;
21816;SDS011;13247;47.504;7.382;2023-05-10T12:55:31;0.52;;;0.35;;
21816;SDS011;13247;47.504;7.382;2023-05-10T12:58:15;2.10;;;0.50;;
21816;SDS011;13247;47.504;7.382;2023-05-10T13:01:00;5.32;;;0.60;;
21816;SDS011;13247;47.504;7.382;2023-05-10T13:03:45;2.10;;;1.13;;
21816;SDS011;13247;47.504;7.382;2023-05-10T13:06:29;3.97;;;1.50;;
21816;SDS011;13247;47.504;7.382;2023-05-10T13:09:14;5.65;;;2.70;;
21816;SDS011;13247;47.504;7.382;2023-05-10T13:11:59;1.00;;;0.60;;
21816;SDS011;13247;47.504;7.382;2023-05-10T13:14:44;0.50;;;0.50;;
21816;SDS011;13247;47.504;7.382;2023-05-10T13:17:28;0.50;;;0.40;;
21816;SDS011;13247;47.504;7.382;2023-05-10T13:20:13;1.38;;;0.55;;
21816;SDS011;13247;47.504;7.382;2023-05-10T13:22:58;0.80;;;0.50;;
21816;SDS011;13247;47.504;7.382;2023-05-10T13:25:43;2.50;;;0.60;;
21816;SDS011;13247;47.504;7.382;2023-05-10T13:28:27;1.05;;;0.40;;
21816;SDS011;13247;47.504;7.382;2023-05-10T13:31:13;2.45;;;1.00;;
21816;SDS011;13247;47.504;7.382;2023-05-10T13:33:58;0.30;;;0.30;;
21816;SDS011;13247;47.504;7.382;2023-05-10T13:36:43;0.45;;;0.40;;
21816;SDS011;13247;47.504;7.382;2023-05-10T13:39:28;0.52;;;0.30;;
21816;SDS011;13247;47.504;7.382;2023-05-10T13:42:17;2.65;;;0.55;;
21816;SDS011;13247;47.504;7.382;2023-05-10T13:45:01;1.80;;;0.40;;
21816;SDS011;13247;47.504;7.382;2023-05-10T13:47:46;0.52;;;0.30;;
21816;SDS011;13247;47.504;7.382;2023-05-10T13:50:31;0.75;;;0.52;;
21816;SDS011;13247;47.504;7.382;2023-05-10T13:53:16;1.20;;;0.43;;
21816;SDS011;13247;47.504;7.382;2023-05-10T13:56:00;2.97;;;0.70;;
21816;SDS011;13247;47.504;7.382;2023-05-10T13:58:46;0.80;;;0.80;;
21816;SDS011;13247;47.504;7.382;2023-05-10T14:01:31;1.75;;;0.77;;
21816;SDS011;13247;47.504;7.382;2023-05-10T14:04:16;1.33;;;0.57;;
21816;SDS011;13247;47.504;7.382;2023-05-10T14:07:00;0.20;;;0.20;;
21816;SDS011;13247;47.504;7.382;2023-05-10T14:09:45;0.40;;;0.28;;
21816;SDS011;13247;47.504;7.382;2023-05-10T14:12:29;0.50;;;0.50;;
21816;SDS011;13247;47.504;7.382;2023-05-10T14:15:14;0.45;;;0.30;;
21816;SDS011;13247;47.504;7.382;2023-05-10T14:17:58;1.58;;;0.28;;
21816;SDS011;13247;47.504;7.382;2023-05-10T14:20:43;1.40;;;0.43;;
21816;SDS011;13247;47.504;7.382;2023-05-10T14:23:28;2.50;;;0.47;;
21816;SDS011;13247;47.504;7.382;2023-05-10T14:26:13;1.60;;;0.30;;
21816;SDS011;13247;47.504;7.382;2023-05-10T14:28:58;1.13;;;0.20;;
21816;SDS011;13247;47.504;7.382;2023-05-10T14:31:43;0.75;;;0.55;;
21816;SDS011;13247;47.504;7.382;2023-05-10T14:34:28;0.82;;;0.50;;
21816;SDS011;13247;47.504;7.382;2023-05-10T14:37:13;2.83;;;0.57;;
21816;SDS011;13247;47.504;7.382;2023-05-10T14:39:59;12.13;;;4.90;;
21816;SDS011;13247;47.504;7.382;2023-05-10T14:42:44;4.47;;;1.70;;
21816;SDS011;13247;47.504;7.382;2023-05-10T14:45:28;3.67;;;1.25;;
21816;SDS011;13247;47.504;7.382;2023-05-10T14:48:13;2.78;;;0.93;;
21816;SDS011;13247;47.504;7.382;2023-05-10T14:51:00;0.70;;;0.70;;
21816;SDS011;13247;47.504;7.382;2023-05-10T14:53:45;2.08;;;0.70;;
21816;SDS011;13247;47.504;7.382;2023-05-10T14:56:31;3.78;;;0.60;;
21816;SDS011;13247;47.504;7.382;2023-05-10T14:59:16;0.32;;;0.30;;
21816;SDS011;13247;47.504;7.382;2023-05-10T15:02:00;0.82;;;0.63;;
21816;SDS011;13247;47.504;7.382;2023-05-10T15:04:45;1.23;;;0.40;;
21816;SDS011;13247;47.504;7.382;2023-05-10T15:07:30;2.95;;;0.60;;
21816;SDS011;13247;47.504;7.382;2023-05-10T15:10:15;0.40;;;0.40;;
21816;SDS011;13247;47.504;7.382;2023-05-10T15:13:00;0.65;;;0.35;;
21816;SDS011;13247;47.504;7.382;2023-05-10T15:15:45;3.33;;;0.70;;
21816;SDS011;13247;47.504;7.382;2023-05-10T15:18:30;1.20;;;0.63;;
21816;SDS011;13247;47.504;7.382;2023-05-10T15:21:15;3.53;;;0.52;;
21816;SDS011;13247;47.504;7.382;2023-05-10T15:24:00;0.45;;;0.45;;
21816;SDS011;13247;47.504;7.382;2023-05-10T15:26:44;0.70;;;0.50;;
21816;SDS011;13247;47.504;7.382;2023-05-10T15:29:29;0.50;;;0.32;;
21816;SDS011;13247;47.504;7.382;2023-05-10T15:32:15;2.65;;;0.50;;
21816;SDS011;13247;47.504;7.382;2023-05-10T15:34:59;1.17;;;0.50;;
21816;SDS011;13247;47.504;7.382;2023-05-10T15:37:45;4.40;;;0.55;;
21816;SDS011;13247;47.504;7.382;2023-05-10T15:40:31;0.63;;;0.50;;
21816;SDS011;13247;47.504;7.382;2023-05-10T15:43:16;0.50;;;0.50;;
21816;SDS011;13247;47.504;7.382;2023-05-10T15:46:01;0.65;;;0.30;;
21816;SDS011;13247;47.504;7.382;2023-05-10T15:48:46;0.50;;;0.50;;
21816;SDS011;13247;47.504;7.382;2023-05-10T15:51:30;0.45;;;0.40;;
21816;SDS011;13247;47.504;7.382;2023-05-10T15:54:16;0.70;;;0.32;;
21816;SDS011;13247;47.504;7.382;2023-05-10T15:57:00;0.40;;;0.40;;
21816;SDS011;13247;47.504;7.382;2023-05-10T15:59:45;0.43;;;0.25;;
21816;SDS011;13247;47.504;7.382;2023-05-10T16:02:29;1.08;;;0.55;;
21816;SDS011;13247;47.504;7.382;2023-05-10T16:05:14;0.73;;;0.40;;
21816;SDS011;13247;47.504;7.382;2023-05-10T16:07:59;1.75;;;0.40;;
21816;SDS011;13247;47.504;7.382;2023-05-10T16:10:44;1.90;;;0.45;;
21816;SDS011;13247;47.504;7.382;2023-05-10T16:13:29;1.65;;;0.50;;
21816;SDS011;13247;47.504;7.382;2023-05-10T16:16:13;0.50;;;0.50;;
21816;SDS011;13247;47.504;7.382;2023-05-10T16:18:58;0.43;;;0.35;;
21816;SDS011;13247;47.504;7.382;2023-05-10T16:21:43;0.30;;;0.30;;
21816;SDS011;13247;47.504;7.382;2023-05-10T16:24:28;1.02;;;0.57;;
21816;SDS011;13247;47.504;7.382;2023-05-10T16:27:13;0.75;;;0.40;;
21816;SDS011;13247;47.504;7.382;2023-05-10T16:29:59;0.80;;;0.80;;
21816;SDS011;13247;47.504;7.382;2023-05-10T16:32:44;0.50;;;0.43;;
21816;SDS011;13247;47.504;7.382;2023-05-10T16:35:28;0.40;;;0.40;;
21816;SDS011;13247;47.504;7.382;2023-05-10T16:38:13;0.30;;;0.30;;
21816;SDS011;13247;47.504;7.382;2023-05-10T16:41:00;0.40;;;0.40;;
21816;SDS011;13247;47.504;7.382;2023-05-10T16:43:46;1.15;;;0.50;;
21816;SDS011;13247;47.504;7.382;2023-05-10T16:46:31;0.57;;;0.50;;
21816;SDS011;13247;47.504;7.382;2023-05-10T16:49:16;1.65;;;0.40;;
21816;SDS011;13247;47.504;7.382;2023-05-10T16:52:00;0.43;;;0.40;;
21816;SDS011;13247;47.504;7.382;2023-05-10T16:54:45;1.42;;;0.52;;
21816;SDS011;13247;47.504;7.382;2023-05-10T16:57:30;0.30;;;0.30;;
21816;SDS011;13247;47.504;7.382;2023-05-10T17:00:15;1.73;;;0.50;;
21816;SDS011;13247;47.504;7.382;2023-05-10T17:03:00;0.30;;;0.30;;
21816;SDS011;13247;47.504;7.382;2023-05-10T17:05:45;0.40;;;0.40;;
21816;SDS011;13247;47.504;7.382;2023-05-10T17:08:29;0.80;;;0.30;;
21816;SDS011;13247;47.504;7.382;2023-05-10T17:11:14;0.40;;;0.32;;
21816;SDS011;13247;47.504;7.382;2023-05-10T17:13:59;1.38;;;0.32;;
21816;SDS011;13247;47.504;7.382;2023-05-10T17:16:44;0.75;;;0.30;;
21816;SDS011;13247;47.504;7.382;2023-05-10T17:19:30;0.82;;;0.20;;